EST,Max TemperatureF,Mean TemperatureF,Min TemperatureF,Max Dew PointF,MeanDew PointF,Min DewpointF,Max Humidity, Mean Humidity, Min Humidity, Max Sea Level PressureIn, Mean Sea Level PressureIn, Min Sea Level PressureIn, Max VisibilityMiles, Mean VisibilityMiles, Min VisibilityMiles, Max Wind SpeedMPH, Mean Wind SpeedMPH, Max Gust SpeedMPH,PrecipitationIn, CloudCover, Events, WindDirDegrees
2012-2-1,55,48,41,46,37,14,100,64,22,30.22,30.16,30.09,10,8,0,22,5,30,0.02,5,Rain,268
2012-2-2,51,46,41,45,35,23,93,63,35,30.30,30.12,30.02,10,10,7,26,12,44,0.00,4,Rain,311
2012-2-3,50,40,30,30,24,18,86,55,30,30.43,30.37,30.31,10,10,2,8,3,,0.00,0,,171
2012-2-4,53,44,35,48,35,23,100,75,49,30.31,30.18,30.04,10,9,3,17,1,23,0.02,7,Rain,250
2012-2-5,53,44,35,46,41,32,93,77,61,30.13,30.03,29.95,10,10,4,16,7,26,0.05,7,Rain,304
2012-2-6,42,37,32,36,33,32,100,92,66,30.19,30.14,30.08,10,4,0,9,2,,0.00,8,Fog-Snow,161
2012-2-7,51,42,32,28,21,14,81,51,22,30.14,30.11,30.08,10,10,10,13,5,18,0.00,0,,353
2012-2-8,37,34,32,32,27,23,100,78,60,30.13,30.10,30.06,10,8,1,21,3,29,0.00,7,Snow,294
2012-2-9,41,34,26,25,22,19,80,69,45,30.21,30.13,30.10,10,10,7,17,8,30,0.00,5,,326
2012-2-10,41,34,26,32,26,23,87,76,57,30.11,29.98,29.82,10,10,5,18,2,26,0.00,4,,236
2012-2-11,33,22,12,30,17,1,93,75,49,29.93,29.80,29.70,10,5,0,31,16,51,0.00,8,Snow,312
2012-2-12,28,19,10,10,5,0,73,56,43,30.10,30.04,29.96,10,8,2,30,19,50,0.00,3,Snow,320
2012-2-13,42,30,19,16,9,5,68,44,23,30.15,30.09,30.02,10,10,10,24,7,38,0.00,1,,187
2012-2-14,41,36,32,34,26,12,81,68,38,30.00,29.96,29.92,10,10,10,24,3,31,0.00,8,Rain,170
2012-2-15,55,44,33,32,27,18,87,57,23,30.24,30.16,30.04,10,10,10,21,8,31,0.00,3,,229
2012-2-16,50,44,39,45,37,25,93,75,46,30.22,30.11,30.02,10,8,2,16,4,22,0.02,8,Rain,196
2012-2-17,50,44,37,36,28,19,81,58,30,30.11,30.08,30.04,10,10,10,14,9,23,0.00,3,,312
2012-2-18,53,44,35,30,25,19,75,45,28,30.08,30.03,29.97,10,10,10,9,2,,0.00,3,,196
2012-2-19,44,37,30,36,30,21,100,86,39,29.96,29.84,29.69,10,5,0,12,3,22,0.28,8,Rain-Snow,31
2012-2-20,41,32,24,28,21,12,93,65,31,30.24,30.10,29.89,10,10,7,15,6,22,0.00,1,Snow,352
2012-2-21,44,36,28,32,27,21,81,70,57,30.22,30.07,29.93,10,10,10,10,4,22,0.00,1,,179
2012-2-22,53,47,41,41,29,14,93,57,25,29.92,29.78,29.55,10,10,1,25,12,37,0.05,4,Rain,256
2012-2-23,62,52,42,46,42,32,87,65,34,29.67,29.62,29.57,10,10,5,22,14,41,0.00,3,Rain,247
2012-2-24,68,50,33,50,38,18,76,57,33,29.82,29.62,29.56,10,10,5,31,9,46,0.01,6,Rain,252
2012-2-25,33,30,26,18,14,10,59,50,38,30.23,30.02,29.85,10,10,5,37,16,52,0.00,5,Snow,306
2012-2-26,44,34,23,19,15,10,68,48,29,30.35,30.31,30.22,10,10,10,13,6,17,0.00,0,,170
2012-2-27,53,42,32,37,28,19,93,60,44,30.38,30.34,30.30,10,10,7,16,4,22,0.00,3,Rain,264
2012-2-28,59,47,35,32,30,28,81,50,31,30.40,30.34,30.28,10,10,10,12,5,18,0.00,1,,162
2012-2-29,60,53,46,52,48,36,94,84,66,30.25,30.04,29.85,10,9,0,18,4,25,0.33,8,Fog-Rain,173